createdAt,value
2018-11-26T00:00:44.682Z,96.6
2018-11-26T00:01:56.836Z,96.2
2018-11-26T00:03:09.001Z,96.2
2018-11-26T00:04:21.278Z,96.2
2018-11-26T00:05:33.403Z,96.2
2018-11-26T00:06:45.691Z,96.2
2018-11-26T00:07:57.910Z,96.4
2018-11-26T00:09:10.126Z,96.2
2018-11-26T00:10:22.242Z,96.1
2018-11-26T00:11:34.441Z,96.5
2018-11-26T00:12:46.653Z,96.5
2018-11-26T00:13:58.911Z,96.2
2018-11-26T00:15:11.195Z,96
2018-11-26T00:16:23.356Z,96
2018-11-26T00:17:35.480Z,96
2018-11-26T00:18:47.671Z,95.9
2018-11-26T00:19:59.944Z,96.1
2018-11-26T00:21:12.215Z,96.2
2018-11-26T00:22:24.362Z,96
2018-11-26T00:23:36.601Z,96
2018-11-26T00:24:48.780Z,96
2018-11-26T00:26:00.887Z,96
2018-11-26T00:27:13.109Z,95.9
2018-11-26T00:28:25.363Z,95.7
2018-11-26T00:29:37.563Z,95.7
2018-11-26T00:30:49.770Z,95.8
2018-11-26T00:32:01.966Z,95.8
2018-11-26T00:33:14.219Z,95.7
2018-11-26T00:34:26.364Z,95.6
2018-11-26T00:35:38.577Z,95.5
2018-11-26T00:36:50.696Z,95.7
2018-11-26T00:38:02.942Z,95.7
2018-11-26T00:39:15.115Z,95.6
2018-11-26T00:40:27.476Z,95.7
2018-11-26T00:41:39.610Z,95.7
2018-11-26T00:42:51.821Z,95.9
2018-11-26T00:44:04.013Z,96
2018-11-26T00:45:16.160Z,95.6
2018-11-26T00:46:28.428Z,95.6
2018-11-26T00:47:40.572Z,95.7
2018-11-26T00:48:52.837Z,95.8
2018-11-26T00:50:04.967Z,96
2018-11-26T00:51:17.216Z,95.6
2018-11-26T00:52:29.424Z,95.4
2018-11-26T00:53:41.626Z,95.5
2018-11-26T00:54:53.763Z,95.6
2018-11-26T00:56:05.971Z,95.7
2018-11-26T00:57:18.261Z,95.8
2018-11-26T00:58:30.397Z,95.7
2018-11-26T00:59:42.687Z,95.4
2018-11-26T01:00:54.881Z,95.4
2018-11-26T01:02:07.125Z,95.3
2018-11-26T01:03:20.280Z,95.3
2018-11-26T01:04:31.649Z,95.4
2018-11-26T01:05:43.730Z,95.3
2018-11-26T01:06:55.933Z,95.6
2018-11-26T01:08:08.076Z,95.7
2018-11-26T01:09:20.347Z,95.6
2018-11-26T01:10:32.554Z,95.6
2018-11-26T01:11:44.699Z,95.6
2018-11-26T01:12:56.899Z,95.7
2018-11-26T01:14:09.115Z,95.6
2018-11-26T01:15:21.301Z,95.5
2018-11-26T01:16:33.581Z,95.5
2018-11-26T01:17:45.712Z,95.6
2018-11-26T01:18:58.011Z,95.6
2018-11-26T01:20:10.220Z,95.9
2018-11-26T01:22:34.644Z,95.6
2018-11-26T01:23:46.875Z,95.6
2018-11-26T01:24:59.105Z,95.6
2018-11-26T01:26:11.230Z,95.7
2018-11-26T01:27:23.508Z,95.7
2018-11-26T01:28:35.733Z,95.4
2018-11-26T01:29:47.854Z,95.4
2018-11-26T01:31:00.076Z,95.4
2018-11-26T01:32:12.348Z,95.5
2018-11-26T01:33:24.575Z,95.7
2018-11-26T01:34:36.775Z,95.4
2018-11-26T01:35:48.908Z,95.5
2018-11-26T01:37:01.155Z,95.6
2018-11-26T01:38:13.410Z,95.4
2018-11-26T01:39:25.691Z,95.4
2018-11-26T01:40:37.833Z,95.4
2018-11-26T01:43:02.262Z,95
2018-11-26T01:44:14.395Z,95.1
2018-11-26T01:45:26.658Z,95
2018-11-26T01:46:38.862Z,95.2
2018-11-26T01:47:51.080Z,95.4
2018-11-26T01:49:03.221Z,95.3
2018-11-26T01:50:15.517Z,95.1
2018-11-26T01:51:27.659Z,95
2018-11-26T01:52:39.957Z,94.9
2018-11-26T01:53:52.101Z,94.7
2018-11-26T01:55:04.415Z,94.7
2018-11-26T01:56:16.564Z,94.3
2018-11-26T01:57:28.747Z,94.5
2018-11-26T01:58:41.012Z,94.8
2018-11-26T01:59:53.216Z,94.9
2018-11-26T02:01:05.423Z,95.1
2018-11-26T02:02:17.537Z,94.9
2018-11-26T02:03:29.812Z,94.9
2018-11-26T02:04:42.105Z,94.7
2018-11-26T02:05:54.236Z,94.8
2018-11-26T02:07:06.418Z,94.8
2018-11-26T02:08:18.659Z,94.9
2018-11-26T02:09:30.830Z,94.8
2018-11-26T02:10:43.040Z,94.8
2018-11-26T02:11:55.256Z,94.8
2018-11-26T02:13:07.453Z,95
2018-11-26T02:14:19.663Z,95.1
2018-11-26T02:15:31.790Z,95.3
2018-11-26T02:16:44.081Z,95.3
2018-11-26T02:17:56.196Z,95.4
2018-11-26T02:19:08.488Z,95.3
2018-11-26T02:20:20.616Z,95.3
2018-11-26T02:21:32.915Z,95
2018-11-26T02:22:45.038Z,95
2018-11-26T02:23:57.255Z,94.5
2018-11-26T02:25:09.534Z,94.5
2018-11-26T02:26:21.710Z,94.7
2018-11-26T02:27:33.935Z,94.7
2018-11-26T02:28:46.156Z,94.5
2018-11-26T02:29:58.356Z,94.8
2018-11-26T02:31:10.578Z,94.5
2018-11-26T02:32:22.775Z,94.5
2018-11-26T02:33:34.987Z,94.7
2018-11-26T02:34:47.178Z,94.7
2018-11-26T02:35:59.332Z,94.7
2018-11-26T02:37:11.801Z,94.8
2018-11-26T02:38:23.806Z,94.5
2018-11-26T02:39:35.929Z,94.3
2018-11-26T02:40:48.124Z,94.3
2018-11-26T02:42:00.395Z,94.3
2018-11-26T02:43:12.630Z,94.5
2018-11-26T02:44:24.729Z,94.5
2018-11-26T02:45:37.032Z,94.5
2018-11-26T02:46:49.218Z,94.5
2018-11-26T02:48:04.462Z,94.2
2018-11-26T02:49:13.623Z,94.5
2018-11-26T02:50:25.897Z,94.5
2018-11-26T02:51:38.061Z,94.5
2018-11-26T02:52:50.271Z,94.5
2018-11-26T02:54:02.397Z,94.5
2018-11-26T02:55:14.689Z,94.5
2018-11-26T02:56:26.964Z,94.5
2018-11-26T02:57:39.090Z,94.7
2018-11-26T02:58:51.301Z,94.5
2018-11-26T03:00:03.454Z,94.5
2018-11-26T03:01:15.731Z,94.5
2018-11-26T03:02:27.947Z,94.5
2018-11-26T03:03:42.422Z,94.5
2018-11-26T03:04:52.371Z,94.3
2018-11-26T03:06:04.582Z,94.2
2018-11-26T03:07:16.785Z,94.3
2018-11-26T03:08:28.915Z,94.1
2018-11-26T03:09:41.202Z,94.5
2018-11-26T03:10:53.390Z,94.5
2018-11-26T03:12:05.591Z,94.7
2018-11-26T03:13:17.801Z,94.9
2018-11-26T03:14:29.964Z,95.1
2018-11-26T03:15:42.217Z,95
2018-11-26T03:16:54.413Z,95.2
2018-11-26T03:18:06.542Z,95.1
2018-11-26T03:19:18.863Z,95
2018-11-26T03:20:31.178Z,95.1
2018-11-26T03:21:43.167Z,95.1
2018-11-26T03:22:55.438Z,95.3
2018-11-26T03:24:07.635Z,95.1
2018-11-26T03:25:19.880Z,94.8
2018-11-26T03:26:31.977Z,95
2018-11-26T03:27:44.390Z,94.8
2018-11-26T03:28:56.378Z,94.7
2018-11-26T03:30:08.651Z,94.5
2018-11-26T03:31:20.771Z,94.2
2018-11-26T03:32:34.642Z,94.5
2018-11-26T03:33:45.300Z,94.3
2018-11-26T03:34:57.457Z,94.5
2018-11-26T03:36:09.578Z,94.7
2018-11-26T03:37:21.866Z,94.5
2018-11-26T03:38:34.200Z,94.2
2018-11-26T03:39:46.267Z,93.8
2018-11-26T03:40:58.464Z,93.5
2018-11-26T03:42:10.745Z,93.6
2018-11-26T03:43:22.802Z,93.5
2018-11-26T03:44:35.103Z,93.3
2018-11-26T03:45:47.276Z,93.3
2018-11-26T03:46:59.493Z,93.3
2018-11-26T03:48:11.627Z,93.4
2018-11-26T03:49:23.842Z,93.3
2018-11-26T03:50:36.122Z,93.5
2018-11-26T03:51:48.463Z,93.2
2018-11-26T03:53:00.479Z,93.3
2018-11-26T03:54:12.782Z,93.1
2018-11-26T03:55:24.986Z,93.1
2018-11-26T03:56:37.111Z,92.8
2018-11-26T03:57:49.398Z,92.8
2018-11-26T03:59:01.617Z,92.8
2018-11-26T04:00:13.755Z,93
2018-11-26T04:01:26.033Z,92.8
2018-11-26T04:02:38.257Z,93.3
2018-11-26T04:03:50.470Z,93.2
2018-11-26T04:05:02.672Z,93.1
2018-11-26T04:06:14.887Z,93
2018-11-26T04:07:27.090Z,93
2018-11-26T04:08:39.288Z,92.8
2018-11-26T04:09:51.539Z,92.7
2018-11-26T04:11:03.727Z,92.8
2018-11-26T04:12:15.955Z,92.8
2018-11-26T04:13:28.112Z,93
2018-11-26T04:14:40.402Z,93.3
2018-11-26T04:15:52.601Z,93
2018-11-26T04:17:04.822Z,93.1
2018-11-26T04:18:17.033Z,93.1
2018-11-26T04:19:29.226Z,93.1
2018-11-26T04:20:41.484Z,93.4
2018-11-26T04:21:53.575Z,93.3
2018-11-26T04:23:05.858Z,93.4
2018-11-26T04:24:18.001Z,93.5
2018-11-26T04:25:30.218Z,93.8
2018-11-26T04:26:42.500Z,93.4
2018-11-26T04:27:54.752Z,93.6
2018-11-26T04:29:06.855Z,93.9
2018-11-26T04:30:19.044Z,93.7
2018-11-26T04:31:34.680Z,94
2018-11-26T04:32:43.453Z,94
2018-11-26T04:33:55.699Z,94
2018-11-26T04:35:07.845Z,93.9
2018-11-26T04:36:20.308Z,94
2018-11-26T04:37:32.273Z,94.1
2018-11-26T04:38:44.559Z,94.2
2018-11-26T04:39:56.777Z,93.9
2018-11-26T04:41:09.038Z,93.8
2018-11-26T04:42:21.192Z,93.8
2018-11-26T04:43:33.403Z,93.9
2018-11-26T04:44:45.616Z,93.8
2018-11-26T04:45:57.842Z,93.9
2018-11-26T04:47:10.151Z,93.7
2018-11-26T04:48:22.291Z,93.6
2018-11-26T04:49:34.475Z,93.7
2018-11-26T04:50:46.605Z,93.6
2018-11-26T04:51:58.892Z,93.8
2018-11-26T04:53:11.058Z,93.8
2018-11-26T04:54:23.339Z,93.7
2018-11-26T04:55:35.519Z,93.7
2018-11-26T04:56:47.648Z,93.5
2018-11-26T04:58:00.356Z,93.6
2018-11-26T04:59:12.061Z,93.4
2018-11-26T05:00:24.357Z,93.6
2018-11-26T05:01:36.576Z,93.8
2018-11-26T05:02:48.777Z,93.6
2018-11-26T05:04:00.911Z,93.5
2018-11-26T05:05:13.112Z,93.7
2018-11-26T05:06:25.411Z,93.8
2018-11-26T05:07:37.622Z,93.8
2018-11-26T05:08:49.836Z,93.8
2018-11-26T05:10:02.041Z,94.1
2018-11-26T05:11:14.262Z,94.1
2018-11-26T05:12:26.480Z,94.1
2018-11-26T05:13:38.712Z,94
2018-11-26T05:14:50.824Z,93.7
2018-11-26T05:16:03.113Z,93.4
2018-11-26T05:17:15.249Z,93.4
2018-11-26T05:18:27.531Z,93.5
2018-11-26T05:19:39.745Z,93.6
2018-11-26T05:20:51.927Z,93.3
2018-11-26T05:22:04.063Z,93.3
2018-11-26T05:23:16.346Z,93.2
2018-11-26T05:24:28.549Z,93.1
2018-11-26T05:25:40.837Z,92.8
2018-11-26T05:26:52.944Z,92.7
2018-11-26T05:28:05.148Z,92.8
2018-11-26T05:29:17.358Z,92.7
2018-11-26T05:30:29.483Z,92.8
2018-11-26T05:31:41.752Z,92.8
2018-11-26T05:32:53.907Z,92.7
2018-11-26T05:34:06.128Z,92.4
2018-11-26T05:35:18.395Z,92.5
2018-11-26T05:36:30.610Z,92.5
2018-11-26T05:37:42.739Z,92.5
2018-11-26T05:38:54.967Z,92.8
2018-11-26T05:40:07.175Z,92.5
2018-11-26T05:41:19.379Z,92.7
2018-11-26T05:42:31.669Z,92.8
2018-11-26T05:43:43.807Z,92.7
2018-11-26T05:44:56.537Z,92.8
2018-11-26T05:46:08.218Z,92.8
2018-11-26T05:47:20.495Z,93.1
2018-11-26T05:48:32.703Z,92.8
2018-11-26T05:49:44.842Z,93
2018-11-26T05:50:57.119Z,92.8
2018-11-26T05:52:09.317Z,92.8
2018-11-26T05:53:21.463Z,92.8
2018-11-26T05:54:33.771Z,92.8
2018-11-26T05:55:45.900Z,92.8
2018-11-26T05:56:58.086Z,93.1
2018-11-26T05:58:10.373Z,93.2
2018-11-26T05:59:22.507Z,92.8
2018-11-26T06:00:34.721Z,92.8
2018-11-26T06:01:46.991Z,92.8
2018-11-26T06:02:59.125Z,93.1
2018-11-26T06:04:11.395Z,93.1
2018-11-26T06:05:23.516Z,93
2018-11-26T06:06:35.811Z,93.2
2018-11-26T06:07:48.033Z,93
2018-11-26T06:09:00.209Z,92.8
2018-11-26T06:10:12.335Z,92.8
2018-11-26T06:11:24.534Z,92.8
2018-11-26T06:12:36.746Z,92.8
2018-11-26T06:13:49.040Z,92.8
2018-11-26T06:15:01.197Z,92.8
2018-11-26T06:16:13.399Z,92.9
2018-11-26T06:17:25.610Z,93.3
2018-11-26T06:18:37.806Z,93.3
2018-11-26T06:19:50.021Z,93.1
2018-11-26T06:21:02.208Z,93.3
2018-11-26T06:22:14.333Z,93.2
2018-11-26T06:23:26.518Z,93.3
2018-11-26T06:24:38.842Z,93.6
2018-11-26T06:25:50.897Z,93.3
2018-11-26T06:27:03.098Z,93.2
2018-11-26T06:28:15.289Z,93.4
2018-11-26T06:29:27.570Z,93.2
2018-11-26T06:30:39.689Z,93.2
2018-11-26T06:31:51.957Z,93.3
2018-11-26T06:33:04.086Z,93.3
2018-11-26T06:34:16.282Z,93.3
2018-11-26T06:35:28.555Z,93.4
2018-11-26T06:36:40.924Z,93.2
2018-11-26T06:37:52.883Z,92.6
2018-11-26T06:39:05.162Z,92.7
2018-11-26T06:40:17.353Z,92.6
2018-11-26T06:41:29.553Z,92.6
2018-11-26T06:42:41.691Z,92.5
2018-11-26T06:43:53.857Z,92.4
2018-11-26T06:45:06.051Z,92.7
2018-11-26T06:46:18.248Z,92.7
2018-11-26T06:47:30.443Z,92.9
2018-11-26T06:48:42.698Z,93
2018-11-26T06:49:54.836Z,92.9
2018-11-26T06:51:07.039Z,93.2
2018-11-26T06:52:19.230Z,93
2018-11-26T06:53:31.435Z,92.8
2018-11-26T06:54:43.695Z,92.9
2018-11-26T06:55:55.895Z,93
2018-11-26T06:57:08.078Z,92.9
2018-11-26T06:58:20.274Z,92.8
2018-11-26T06:59:32.397Z,93
2018-11-26T07:00:44.679Z,93
2018-11-26T07:01:56.910Z,92.9
2018-11-26T07:03:09.063Z,93.1
2018-11-26T07:04:21.284Z,93.3
2018-11-26T07:05:33.382Z,93.3
2018-11-26T07:06:45.569Z,93.2
2018-11-26T07:07:57.787Z,93.1
2018-11-26T07:09:09.965Z,93.4
2018-11-26T07:10:22.261Z,93.4
2018-11-26T07:11:34.361Z,93.2
2018-11-26T07:13:58.834Z,93.5
2018-11-26T07:15:11.019Z,93.7
2018-11-26T07:16:23.149Z,93.6
2018-11-26T07:17:35.420Z,93.7
2018-11-26T07:18:47.631Z,93.7
2018-11-26T07:19:59.804Z,93.6
2018-11-26T07:21:11.996Z,93.7
2018-11-26T07:22:24.108Z,94
2018-11-26T07:23:36.307Z,94
2018-11-26T07:24:48.528Z,94
2018-11-26T07:26:00.800Z,93.8
2018-11-26T07:27:12.895Z,94
2018-11-26T07:28:25.168Z,93.8
2018-11-26T07:29:37.403Z,93.7
2018-11-26T07:30:50.279Z,93.7
2018-11-26T07:32:01.699Z,93.5
2018-11-26T07:33:14.013Z,93.5
2018-11-26T07:34:26.214Z,93.1
2018-11-26T07:35:38.357Z,93.1
2018-11-26T07:36:50.561Z,93.4
2018-11-26T07:38:02.753Z,93.5
2018-11-26T07:39:14.961Z,93.4
2018-11-26T07:40:27.086Z,93.7
2018-11-26T07:41:39.303Z,93.3
2018-11-26T07:42:51.485Z,93.4
2018-11-26T07:44:03.704Z,93.4
2018-11-26T07:45:15.962Z,93.5
2018-11-26T07:46:28.168Z,93.7
2018-11-26T07:47:40.289Z,93.6
2018-11-26T07:48:52.504Z,93.3
2018-11-26T07:50:04.777Z,92.9
2018-11-26T07:51:16.971Z,92.8
2018-11-26T07:52:29.108Z,92.7
2018-11-26T07:53:41.328Z,92.7
2018-11-26T07:54:53.598Z,92.7
2018-11-26T07:56:05.803Z,92.8
2018-11-26T07:57:17.936Z,92.6
2018-11-26T07:58:30.217Z,92.4
2018-11-26T07:59:42.368Z,92.8
2018-11-26T08:00:54.547Z,92.4
2018-11-26T08:02:06.745Z,92.2
2018-11-26T08:03:18.958Z,92.2
2018-11-26T08:04:31.218Z,92.2
2018-11-26T08:05:43.335Z,92.1
2018-11-26T08:06:55.627Z,91.9
2018-11-26T08:08:07.790Z,92.1
2018-11-26T08:09:20.197Z,92
2018-11-26T08:10:32.207Z,92
2018-11-26T08:11:44.330Z,92.2
2018-11-26T08:12:56.528Z,92.2
2018-11-26T08:14:08.824Z,91.9
2018-11-26T08:15:20.983Z,92.1
2018-11-26T08:16:33.187Z,92.5
2018-11-26T08:17:45.627Z,92.5
2018-11-26T08:18:57.627Z,92.5
2018-11-26T08:20:09.772Z,92.1
2018-11-26T08:21:21.989Z,92.1
2018-11-26T08:22:34.093Z,92.5
2018-11-26T08:23:46.368Z,92.7
2018-11-26T08:24:58.496Z,92.2
2018-11-26T08:26:10.772Z,92.3
2018-11-26T08:27:22.898Z,92.6
2018-11-26T08:28:35.180Z,92.6
2018-11-26T08:29:47.373Z,92.5
2018-11-26T08:30:59.520Z,92.2
2018-11-26T08:32:11.792Z,92.4
2018-11-26T08:33:23.896Z,92.6
2018-11-26T08:34:36.126Z,92.4
2018-11-26T08:35:48.302Z,92.3
2018-11-26T08:37:00.589Z,92
2018-11-26T08:38:12.803Z,91.5
2018-11-26T08:39:24.921Z,91.6
2018-11-26T08:40:37.109Z,91.4
2018-11-26T08:41:49.309Z,91.3
2018-11-26T08:43:01.507Z,91.6
2018-11-26T08:44:13.774Z,91.4
2018-11-26T08:45:25.968Z,91.2
2018-11-26T08:46:38.194Z,91
2018-11-26T08:47:50.397Z,91.5
2018-11-26T08:49:02.573Z,91.5
2018-11-26T08:50:14.700Z,91
2018-11-26T08:51:26.967Z,91
2018-11-26T08:52:39.098Z,91
2018-11-26T08:53:51.309Z,91.1
2018-11-26T08:55:03.518Z,91.2
2018-11-26T08:56:15.732Z,90.8
2018-11-26T08:57:27.915Z,90.5
2018-11-26T08:58:40.215Z,90.8
2018-11-26T08:59:52.415Z,90.2
2018-11-26T09:01:04.615Z,90.3
2018-11-26T09:02:16.820Z,90.2
2018-11-26T09:03:29.017Z,89.9
2018-11-26T09:04:41.235Z,89.6
2018-11-26T09:05:53.435Z,89.8
2018-11-26T09:07:05.641Z,89.5
2018-11-26T09:08:17.773Z,88.9
2018-11-26T09:09:29.981Z,88.4
2018-11-26T09:10:42.325Z,88.2
2018-11-26T09:11:54.464Z,88.3
2018-11-26T09:13:06.660Z,88.3
2018-11-26T09:14:18.801Z,88.3
2018-11-26T09:15:31.011Z,88.4
2018-11-26T09:16:43.288Z,88.2
2018-11-26T09:17:55.424Z,87.4
2018-11-26T09:19:07.694Z,87.7
2018-11-26T09:20:19.912Z,87.8
2018-11-26T09:21:32.044Z,87.6
2018-11-26T09:22:44.272Z,87
2018-11-26T09:23:56.520Z,87.3
2018-11-26T09:25:08.739Z,87.2
2018-11-26T09:26:20.868Z,86.9
2018-11-26T09:27:33.141Z,87.5
2018-11-26T09:28:45.336Z,87.4
2018-11-26T09:29:57.515Z,87.2
2018-11-26T09:31:12.956Z,87.9
2018-11-26T09:32:21.939Z,87.5
2018-11-26T09:33:34.058Z,87.9
2018-11-26T09:34:46.253Z,87.3
2018-11-26T09:35:58.476Z,87.4
2018-11-26T09:37:10.746Z,87.2
2018-11-26T09:38:22.931Z,87.6
2018-11-26T09:39:35.047Z,87.5
2018-11-26T09:40:47.246Z,87.5
2018-11-26T09:41:59.445Z,87.3
2018-11-26T09:43:11.737Z,87.9
2018-11-26T09:44:23.846Z,88.2
2018-11-26T09:45:36.123Z,87
2018-11-26T09:46:48.252Z,87.7
2018-11-26T09:48:00.533Z,87.5
2018-11-26T09:49:12.664Z,87.1
2018-11-26T09:50:24.944Z,86.9
2018-11-26T09:51:37.058Z,87.5
2018-11-26T09:52:49.353Z,86.9
2018-11-26T09:54:01.538Z,86.8
2018-11-26T09:55:13.677Z,86.7
2018-11-26T09:56:25.955Z,87.1
2018-11-26T09:57:38.078Z,88.1
2018-11-26T09:58:50.285Z,87.5
2018-11-26T10:00:04.595Z,87.2
2018-11-26T10:02:26.915Z,87.5
2018-11-26T10:03:39.127Z,86.6
2018-11-26T10:04:51.403Z,86.6
2018-11-26T10:06:03.613Z,86.7
2018-11-26T10:07:15.727Z,86.3
2018-11-26T10:08:27.999Z,86.7
2018-11-26T10:09:40.147Z,86.2
2018-11-26T10:10:52.441Z,86.3
2018-11-26T10:12:04.666Z,86.8
2018-11-26T10:13:16.875Z,86
2018-11-26T10:14:29.078Z,85.5
2018-11-26T10:15:41.258Z,85.6
2018-11-26T10:16:53.474Z,86.1
2018-11-26T10:18:05.637Z,86.4
2018-11-26T10:19:17.893Z,85.6
2018-11-26T10:20:30.020Z,85.2
2018-11-26T10:21:42.302Z,85.1
2018-11-26T10:22:54.505Z,85
2018-11-26T10:24:06.648Z,85
2018-11-26T10:25:18.860Z,84.4
2018-11-26T10:26:31.124Z,84.7
2018-11-26T10:27:43.265Z,83.7
2018-11-26T10:28:55.533Z,84
2018-11-26T10:30:07.655Z,83.5
2018-11-26T10:31:19.866Z,84
2018-11-26T10:32:32.166Z,83
2018-11-26T10:33:44.367Z,83.7
2018-11-26T10:34:56.508Z,82.8
2018-11-26T10:36:08.803Z,83.5
2018-11-26T10:37:21.043Z,82.7
2018-11-26T10:38:33.224Z,83.5
2018-11-26T10:39:45.358Z,83.1
2018-11-26T10:40:57.637Z,83.6
2018-11-26T10:42:09.767Z,83.5
2018-11-26T10:43:22.090Z,83.9
2018-11-26T10:44:34.277Z,83.2
2018-11-26T10:45:46.480Z,83.9
2018-11-26T10:46:58.650Z,83.7
2018-11-26T10:48:10.930Z,83.6
2018-11-26T10:49:23.171Z,83.8
2018-11-26T10:50:35.384Z,83.9
2018-11-26T10:51:47.493Z,83.6
2018-11-26T10:52:59.701Z,84.1
2018-11-26T10:54:11.929Z,84.2
2018-11-26T10:55:24.196Z,83.5
2018-11-26T10:56:36.405Z,84.2
2018-11-26T10:57:48.521Z,83.8
2018-11-26T10:59:00.729Z,83.1
2018-11-26T11:00:13.040Z,82.3
2018-11-26T11:01:25.158Z,82.9
2018-11-26T11:02:37.440Z,83.3
2018-11-26T11:03:49.648Z,83.9
2018-11-26T11:05:01.767Z,84.3
2018-11-26T11:06:13.973Z,83.7
2018-11-26T11:07:26.258Z,83.2
2018-11-26T11:08:39.723Z,84.2
2018-11-26T11:09:50.589Z,84.1
2018-11-26T11:11:02.875Z,84.1
2018-11-26T11:12:15.068Z,85
2018-11-26T11:13:27.201Z,84.3
2018-11-26T11:14:39.468Z,83.6
2018-11-26T11:15:51.687Z,84.1
2018-11-26T11:17:03.788Z,83.2
2018-11-26T11:18:15.992Z,83.6
2018-11-26T11:19:28.196Z,84.2
2018-11-26T11:20:40.481Z,83.2
2018-11-26T11:21:52.614Z,83.5
2018-11-26T11:23:04.834Z,83
2018-11-26T11:24:17.127Z,82.9
2018-11-26T11:25:29.252Z,82.3
2018-11-26T11:26:41.524Z,82.6
2018-11-26T11:29:05.970Z,84.2
2018-11-26T11:30:18.159Z,83.7
2018-11-26T11:31:30.306Z,83.4
2018-11-26T11:32:42.527Z,83.8
2018-11-26T11:33:54.893Z,83.5
2018-11-26T11:35:06.951Z,83.8
2018-11-26T11:36:19.165Z,84
2018-11-26T11:37:31.414Z,82.7
2018-11-26T11:38:43.631Z,83.5
2018-11-26T11:39:55.903Z,84
2018-11-26T11:41:08.024Z,83.4
2018-11-26T11:42:20.248Z,83.7
2018-11-26T11:43:32.527Z,83
2018-11-26T11:44:44.664Z,84.1
2018-11-26T11:45:56.971Z,83.6
2018-11-26T11:47:09.151Z,82.9
2018-11-26T11:48:21.283Z,82.2
2018-11-26T11:49:33.486Z,82.2
2018-11-26T11:50:45.832Z,82.2
2018-11-26T11:51:57.915Z,82.4
2018-11-26T11:53:10.134Z,83.1
2018-11-26T11:55:34.581Z,82.4
2018-11-26T11:56:46.698Z,81.8
2018-11-26T11:57:58.901Z,82.4
2018-11-26T11:59:11.100Z,82.6
2018-11-26T12:00:23.361Z,82.8
2018-11-26T12:01:35.579Z,82.8
2018-11-26T12:02:47.786Z,82.4
2018-11-26T12:04:00.004Z,83.1
2018-11-26T12:05:12.144Z,82.8
2018-11-26T12:06:24.279Z,82.9
2018-11-26T12:07:36.482Z,82.3
2018-11-26T12:08:48.673Z,82.9
2018-11-26T12:10:00.865Z,83.3
2018-11-26T12:11:13.063Z,83.3
2018-11-26T12:12:25.259Z,83.2
2018-11-26T12:13:37.521Z,83.1
2018-11-26T12:14:49.651Z,83.4
2018-11-26T12:16:01.898Z,84
2018-11-26T12:17:14.041Z,82.7
2018-11-26T12:18:26.240Z,82.9
2018-11-26T12:19:38.512Z,82.9
2018-11-26T12:20:50.645Z,84
2018-11-26T12:22:02.834Z,83.9
2018-11-26T12:23:15.144Z,83.7
2018-11-26T12:24:27.685Z,83.4
2018-11-26T12:25:39.448Z,82.9
2018-11-26T12:26:51.650Z,82.7
2018-11-26T12:28:03.883Z,83.6
2018-11-26T12:29:16.127Z,83.5
2018-11-26T12:30:28.729Z,82.3
2018-11-26T12:31:40.492Z,83.1
2018-11-26T12:32:52.752Z,83
2018-11-26T12:34:05.001Z,82.8
2018-11-26T12:35:17.181Z,83.6
2018-11-26T12:36:29.314Z,83.3
2018-11-26T12:37:41.495Z,83
2018-11-26T12:38:53.701Z,82.8
2018-11-26T12:40:05.968Z,82.8
2018-11-26T12:41:18.111Z,83.2
2018-11-26T12:42:30.293Z,83.4
2018-11-26T12:43:45.841Z,82.5
2018-11-26T12:44:54.689Z,82.7
2018-11-26T12:46:06.893Z,82.6
2018-11-26T12:47:19.089Z,82.8
2018-11-26T12:48:31.361Z,82.6
2018-11-26T12:49:43.558Z,83.2
2018-11-26T12:50:55.721Z,82.2
2018-11-26T12:52:07.894Z,81.5
2018-11-26T12:53:20.196Z,81.9
2018-11-26T12:54:32.304Z,81.7
2018-11-26T12:55:44.522Z,82.2
2018-11-26T12:56:56.818Z,82
2018-11-26T12:58:09.013Z,82.2
2018-11-26T12:59:21.154Z,82.7
2018-11-26T13:00:33.454Z,81.4
2018-11-26T13:01:45.521Z,82.2
2018-11-26T13:02:57.787Z,81.8
2018-11-26T13:04:09.991Z,82
2018-11-26T13:05:22.118Z,81.4
2018-11-26T13:06:34.303Z,82.2
2018-11-26T13:07:46.578Z,81.9
2018-11-26T13:08:58.777Z,82
2018-11-26T13:10:11.002Z,82.1
2018-11-26T13:11:23.157Z,82.6
2018-11-26T13:12:35.275Z,82.8
2018-11-26T13:13:47.545Z,81.8
2018-11-26T13:14:59.715Z,82
2018-11-26T13:16:11.963Z,82
2018-11-26T13:17:24.096Z,82.5
2018-11-26T13:18:36.357Z,82.8
2018-11-26T13:19:48.559Z,81.8
2018-11-26T13:22:12.882Z,82.1
2018-11-26T13:23:25.144Z,82.1
2018-11-26T13:24:37.376Z,82.4
2018-11-26T13:25:49.481Z,82.3
2018-11-26T13:27:01.745Z,82.5
2018-11-26T13:28:13.864Z,82.5
2018-11-26T13:29:26.143Z,83
2018-11-26T13:30:38.259Z,83.2
2018-11-26T13:31:50.459Z,82
2018-11-26T13:33:02.730Z,82
2018-11-26T13:34:14.928Z,82.4
2018-11-26T13:35:27.119Z,82.8
2018-11-26T13:36:39.316Z,82.3
2018-11-26T13:37:51.456Z,81.9
2018-11-26T13:39:03.741Z,83
2018-11-26T13:40:15.847Z,82.8
2018-11-26T13:41:28.061Z,83
2018-11-26T13:42:40.239Z,82.1
2018-11-26T13:43:52.448Z,81.8
2018-11-26T13:45:04.728Z,83
2018-11-26T13:46:16.878Z,81.6
2018-11-26T13:47:29.176Z,81.8
2018-11-26T13:48:41.357Z,82.4
2018-11-26T13:49:53.506Z,82.1
2018-11-26T13:51:05.815Z,81.8
2018-11-26T13:52:17.981Z,81.1
2018-11-26T13:53:30.352Z,81.2
2018-11-26T13:54:42.322Z,81.6
2018-11-26T13:55:54.656Z,81.5
2018-11-26T13:57:06.804Z,81.8
2018-11-26T13:58:18.994Z,82.3
2018-11-26T13:59:31.175Z,82.7
2018-11-26T14:00:43.398Z,82.6
2018-11-26T14:01:55.676Z,83.2
2018-11-26T14:03:07.804Z,82.5
2018-11-26T14:04:19.998Z,82.9
2018-11-26T14:05:32.210Z,83.1
2018-11-26T14:06:44.355Z,83.3
2018-11-26T14:07:56.619Z,83.5
2018-11-26T14:09:08.824Z,83.9
2018-11-26T14:10:20.912Z,83.7
2018-11-26T14:11:33.186Z,84.5
2018-11-26T14:12:45.444Z,84.2
2018-11-26T14:13:57.516Z,83.9
2018-11-26T14:15:09.775Z,84
2018-11-26T14:16:21.920Z,84.1
2018-11-26T14:17:34.191Z,83.6
2018-11-26T14:18:46.408Z,83.7
2018-11-26T14:19:58.676Z,83.1
2018-11-26T14:21:10.730Z,83.6
2018-11-26T14:22:22.915Z,83.4
2018-11-26T14:23:35.177Z,83.9
2018-11-26T14:24:47.377Z,83.5
2018-11-26T14:25:59.579Z,84.1
2018-11-26T14:27:11.751Z,83.6
2018-11-26T14:28:24.042Z,83
2018-11-26T14:29:36.185Z,82.6
2018-11-26T14:30:48.384Z,83
2018-11-26T14:32:00.495Z,83
2018-11-26T14:33:12.708Z,83.3
2018-11-26T14:34:25.019Z,82.9
2018-11-26T14:35:37.719Z,82.9
2018-11-26T14:36:49.364Z,83.5
2018-11-26T14:38:01.558Z,83.7
2018-11-26T14:39:13.674Z,84
2018-11-26T14:40:25.964Z,83.6
2018-11-26T14:41:38.088Z,83.3
2018-11-26T14:42:50.380Z,83.6
2018-11-26T14:44:02.603Z,83
2018-11-26T14:45:14.781Z,83
2018-11-26T14:46:26.913Z,83.5
2018-11-26T14:47:39.121Z,82.9
2018-11-26T14:48:51.324Z,83.2
2018-11-26T14:50:03.600Z,83.8
2018-11-26T14:51:15.790Z,83.7
2018-11-26T14:52:28.001Z,84
2018-11-26T14:53:40.232Z,84
2018-11-26T14:54:52.317Z,83.6
2018-11-26T14:56:04.572Z,83.8
2018-11-26T14:57:16.706Z,83.6
2018-11-26T14:58:28.897Z,83.7
2018-11-26T14:59:41.092Z,84.2
2018-11-26T15:00:53.362Z,83.9
2018-11-26T15:02:05.558Z,84.3
2018-11-26T15:03:17.661Z,84.6
2018-11-26T15:04:29.971Z,84.4
2018-11-26T15:05:42.050Z,84.3
2018-11-26T15:06:54.311Z,84.6
2018-11-26T15:08:06.523Z,83.9
2018-11-26T15:09:18.725Z,84
2018-11-26T15:10:30.848Z,84.3
2018-11-26T15:11:43.198Z,84.3
2018-11-26T15:12:55.307Z,84.2
2018-11-26T15:14:07.493Z,84.4
2018-11-26T15:15:19.689Z,83.7
2018-11-26T15:16:31.822Z,84
2018-11-26T15:17:44.107Z,84
2018-11-26T15:18:56.214Z,83.9
2018-11-26T15:20:08.513Z,84.1
2018-11-26T15:21:20.695Z,84.3
2018-11-26T15:22:32.891Z,83.9
2018-11-26T15:23:45.107Z,83.6
2018-11-26T15:24:57.208Z,83.5
2018-11-26T15:26:09.556Z,83.1
2018-11-26T15:27:21.662Z,83.6
2018-11-26T15:28:33.908Z,84.2
2018-11-26T15:29:45.993Z,84
2018-11-26T15:30:58.270Z,83.5
2018-11-26T15:32:10.392Z,83.5
2018-11-26T15:33:22.687Z,83.7
2018-11-26T15:34:34.884Z,83.5
2018-11-26T15:35:47.019Z,83.8
2018-11-26T15:36:59.201Z,83.4
2018-11-26T15:38:11.493Z,83.7
2018-11-26T15:39:23.689Z,84.5
2018-11-26T15:40:35.795Z,84.5
2018-11-26T15:41:48.067Z,83.9
2018-11-26T15:43:00.312Z,83.8
2018-11-26T15:44:12.561Z,83.5
2018-11-26T15:45:24.712Z,83.3
2018-11-26T15:46:36.806Z,83.4
2018-11-26T15:47:49.074Z,83.8
2018-11-26T15:49:04.625Z,83.7
2018-11-26T15:50:13.505Z,83.6
2018-11-26T15:51:25.685Z,83.1
2018-11-26T15:52:37.818Z,83.3
2018-11-26T15:53:50.096Z,83.2
2018-11-26T15:55:02.302Z,83.4
2018-11-26T15:56:14.487Z,83.8
2018-11-26T15:57:26.757Z,83.7
2018-11-26T15:58:38.993Z,83.7
2018-11-26T15:59:51.058Z,83.6
2018-11-26T16:01:03.335Z,83.6
2018-11-26T16:02:15.557Z,83.6
2018-11-26T16:03:27.690Z,83.5
2018-11-26T16:04:39.992Z,84.2
2018-11-26T16:05:52.187Z,84.1
2018-11-26T16:07:05.811Z,84.1
2018-11-26T16:08:16.612Z,84.1
2018-11-26T16:09:28.818Z,83.9
2018-11-26T16:10:41.106Z,84.3
2018-11-26T16:11:53.224Z,84.6
2018-11-26T16:13:05.371Z,83.9
2018-11-26T16:14:17.603Z,83.8
2018-11-26T16:15:29.758Z,83.9
2018-11-26T16:16:42.331Z,83.7